Main page
Satellite images 15-day forecastsClimateMarine weather Cyclones Lightning AirportsFAQ Newsletter About
Weather : Europe Africa North America South America Asia Australia-Oceania Others
Languages Contact

San Fernando, Argentina

latitude: 34-27-11S, longitude: 058-35-23W, elevation: 3 m


METAR: SADF 191200Z 00000KT 5000 BR 14/13 Q1020
short-TAF: out of date (762 hours)
long-TAF: SADF 191100Z 1912/2012 14005KT 2000 BR NCS TX20/1918Z TN10/2010Z BECMG 1913/1915 CAVOK BECMG 2003/2005 5000 BR

Time: 09:52 (12:52 UTC)

Current weather observation

The report was made 52 minutes ago, at 12:00 UTC  
Wind calm
Temperature 14°C
Humidity 94%
Pressure 1020 hPa
Visibility 5000 m
mist

Change units

Forecast

The report was made 1 hour and 34 minutes ago, at 11:18 UTC  
Forecast valid from 19 at 12 UTC to 20 at 12 UTC
Wind 05 kt from southeast
Visibility 2000 m
mist
Becoming
from 19 at 13 UTC to 19 at 15 UTC
Visibility 10 km or more
no clouds below 1500 m and no cumulonimbus
Becoming
from 20 at 03 UTC to 20 at 05 UTC
Visibility 5000 m
mist
The information on this site is subject to a disclaimer
Weather : Europe Africa North America South America Asia Australia-Oceania Others
Satellite images 15-day forecastsClimateMarine weather Cyclones Lightning AirportsFAQ Languages Contact Newsletter About